• Join FlightAware (Why Join?)
  • Login
  • US Flag 
12:13AM EDT


 

Airport Tracker/Info


-or-


 

Live Flight TrackerFlight Track Log ✈ UAL118 ✈ 14-Apr-2013 ✈ EDDF / FRA - KEWR

Flight Track Log - Related Links

Times and Time Zones

All times are in EDT time to prevent confusion due to time zone crossing. See the UAL118 flight status page for this flight to view local times or setup timezone preferences in your user account.

Time Position Orientation Groundspeed Altitude Reporting Facility
EDT Latitude Longitude Course Direction KTS MPH feet Rate Location/Type
03:09AM 50.0110 8.2960 274° West 248 285 5,900  Level FlightAware
03:10AM 50.0140 8.2740 282° West 252 290 6,500 2,640 Climbing FlightAware
03:10AM 50.0200 8.2480 290° West 259 298 7,000 2,400 Climbing FlightAware
03:10AM 50.0350 8.1970 295° West 268 308 8,300 1,920 Climbing FlightAware
03:11AM 50.0440 8.1660 294° West 288 331 8,600 1,260 Climbing FlightAware
03:12AM 50.1020 8.0360 305° West 344 396 10,100 1,680 Climbing FlightAware
03:12AM 50.1440 7.9580 310° West 358 412 11,600 2,280 Climbing FlightAware
03:13AM 50.1980 7.8930 322° Northwest 364 419 13,200 2,220 Climbing FlightAware
03:14AM 50.2520 7.8390 327° Northwest 370 426 14,600 2,160 Climbing FlightAware
03:15AM 50.3240 7.7660 327° Northwest 387 445 16,300 2,160 Climbing FlightAware
03:15AM 50.3850 7.7050 327° Northwest 388 447 17,700 1,800 Climbing FlightAware
03:16AM 50.4530 7.6360 327° Northwest 401 461 18,900 1,620 Climbing FlightAware
03:17AM 50.5200 7.5690 328° Northwest 420 483 20,000 1,740 Climbing FlightAware
03:17AM 50.5940 7.4930 327° Northwest 424 488 21,400 1,680 Climbing FlightAware
03:18AM 50.6610 7.4240 327° Northwest 426 490 22,400 1,560 Climbing FlightAware
03:19AM 50.7260 7.3570 327° Northwest 428 493 23,500 1,620 Climbing FlightAware
03:19AM 50.8040 7.2760 327° Northwest 441 507 24,700 1,500 Climbing FlightAware
03:20AM 50.8730 7.2050 327° Northwest 443 510 25,700 1,320 Climbing FlightAware
03:21AM 50.9470 7.1260 326° Northwest 440 506 26,600 1,380 Climbing FlightAware
03:22AM 51.0110 7.0450 321° Northwest 443 510 27,700 1,800 Climbing FlightAware
03:22AM 51.0740 6.9580 319° Northwest 435 501 29,000 1,860 Climbing FlightAware
03:23AM 51.1400 6.8590 317° Northwest 418 481 30,400 1,620 Climbing FlightAware
03:24AM 51.1930 6.7760 316° Northwest 415 478 31,300 1,320 Climbing FlightAware
03:24AM 51.2510 6.6860 316° Northwest 412 474 32,200 1,380 Climbing FlightAware
03:25AM 51.3060 6.6020 316° Northwest 405 466 33,200 1,260 Climbing FlightAware
03:26AM 51.3680 6.5060 316° Northwest 404 465 34,000 540 Climbing FlightAware
03:26AM 51.4240 6.4210 317° Northwest 405 466 34,000  Level FlightAware
03:27AM 51.4810 6.3310 315° West 409 471 34,000  Level FlightAware
03:28AM 51.5370 6.2440 316° Northwest 409 471 34,000  Level FlightAware
03:29AM 51.5990 6.1470 316° Northwest 408 470 34,000  Level FlightAware
03:29AM 51.6530 6.0620 316° Northwest 407 468 34,000  Level FlightAware
03:30AM 51.7040 5.9770 314° West 407 468 34,000  Level FlightAware
03:31AM 51.7620 5.8800 314° West 408 470 34,000  Level FlightAware
03:31AM 51.8170 5.7890 314° West 409 471 34,000 -1,620 Level FlightAware
03:32AM 51.8462 5.7601 314° West 462 532 32,500 -2,580 Descending FlightAware UK
03:32AM 51.8686 5.7203 312° West 460 529 32,500 3,180 Level FlightAware UK
03:32AM 51.8720 5.6970 312° West 410 472 34,000  Climbing FlightAware
03:32AM 51.9058 5.6535 312° West 462 532 32,500 -2,400 Descending FlightAware UK
03:33AM 51.9286 5.6143 313° West 462 532 32,500 4,500 Level FlightAware UK
03:33AM 51.9300 5.6000 313° West 410 472 34,000  Climbing FlightAware
03:33AM 51.9753 5.5352 313° West 462 532 32,500  Descending FlightAware UK
03:33AM 51.9800 5.5150 313° West 410 472 34,000  Climbing FlightAware
03:34AM 52.0219 5.4560 313° West 460 529 32,500  Descending FlightAware UK
03:34AM 52.0410 5.4140 313° West 410 472 34,000  Climbing FlightAware
03:34AM 52.0680 5.3762 313° West 462 532 32,500 -2,340 Descending FlightAware UK
03:35AM 52.0917 5.3368 314° West 460 529 32,500 4,680 Level FlightAware UK
03:35AM 52.0940 5.3230 314° West 410 472 34,000  Climbing FlightAware
03:35AM 52.1235 5.2843 314° West 462 532 32,500  Descending FlightAware UK
03:36AM 52.1510 5.2270 314° West 411 473 34,000  Climbing FlightAware
03:36AM 52.1949 5.1655 314° West 462 532 32,500  Descending FlightAware UK
03:36AM 52.2030 5.1380 314° West 412 474 34,000 1,680 Climbing FlightAware
03:37AM 52.2640 5.0330 314° West 412 474 34,000 -1,140 Level FlightAware
03:38AM 52.3114 4.9635 314° West 460 529 32,500  Descending FlightAware UK
03:38AM 52.3160 4.9430 314° West 413 475 34,000  Climbing FlightAware
03:38AM 52.3354 4.9235 314° West 460 529 32,500 -2,340 Descending FlightAware UK
03:38AM 52.3677 4.8704 315° West 462 532 32,500 3,000 Level FlightAware UK
03:38AM 52.3710 4.8480 315° West 413 475 34,000  Climbing FlightAware
03:39AM 52.4136 4.7884 315° West 462 532 32,500  Descending FlightAware UK
03:39AM 52.4280 4.7500 315° West 413 475 34,000  Climbing FlightAware
03:39AM 52.4539 4.7217 315° West 464 534 32,500 -2,400 Descending FlightAware UK
03:40AM 52.4771 4.6806 313° West 464 534 32,500 3,600 Level FlightAware UK
03:40AM 52.4880 4.6450 313° West 413 475 34,000  Climbing FlightAware
03:40AM 52.5160 4.6124 313° West 462 532 32,500  Descending FlightAware UK
03:40AM 52.5390 4.5570 313° West 415 478 34,000  Climbing FlightAware
03:41AM 52.5708 4.5174 313° West 460 529 32,500  Descending FlightAware UK
03:41AM 52.5910 4.4650 313° West 416 479 34,000 1,500 Climbing FlightAware
03:42AM 52.6530 4.3570 313° West 418 481 34,000 -1,440 Level FlightAware
03:42AM 52.6727 4.3384 313° West 462 532 32,500  Descending FlightAware UK
03:43AM 52.7040 4.2670 313° West 418 481 34,000 1,320 Climbing FlightAware
03:43AM 52.7630 4.1630 313° West 418 481 34,000 -1,260 Level FlightAware
03:44AM 52.7992 4.1153 313° West 462 532 32,500  Descending FlightAware UK
03:44AM 52.8150 4.0700 313° West 419 482 34,000  Climbing FlightAware
03:44AM 52.8542 4.0170 313° West 462 532 32,500  Descending FlightAware UK
03:45AM 52.8660 3.9780 313° West 419 482 34,000  Climbing FlightAware
03:45AM 52.8860 3.9609 313° West 462 532 32,500 -2,340 Descending FlightAware UK
03:45AM 52.9174 3.9047 313° West 464 534 32,500 3,600 Level FlightAware UK
03:45AM 52.9210 3.8800 313° West 419 482 34,000  Climbing FlightAware
03:46AM 52.9490 3.8482 313° West 462 532 32,500  Descending FlightAware UK
03:46AM 52.9790 3.7760 313° West 419 482 34,000  Climbing FlightAware
03:46AM 53.0038 3.7490 313° West 462 532 32,500 -2,400 Descending FlightAware UK
03:47AM 53.0273 3.7064 312° West 462 532 32,500 4,500 Level FlightAware UK
03:47AM 53.0320 3.6800 312° West 420 483 34,000  Climbing FlightAware
03:47AM 53.0508 3.6639 312° West 462 532 32,500 -2,700 Descending FlightAware UK
03:47AM 53.0740 3.6217 313° West 462 532 32,500 3,060 Level FlightAware UK
03:47AM 53.0920 3.5720 313° West 419 482 34,000  Climbing FlightAware
03:48AM 53.1292 3.5218 313° West 462 532 32,500  Descending FlightAware UK
03:48AM 53.1440 3.4770 313° West 419 482 34,000  Climbing FlightAware
03:48AM 53.1684 3.4509 313° West 462 532 32,500 -2,340 Descending FlightAware UK
03:49AM 53.1919 3.4079 312° West 462 532 32,500 3,720 Level FlightAware UK
03:49AM 53.2040 3.3680 312° West 420 483 34,000  Climbing FlightAware
03:49AM 53.2312 3.3362 312° West 462 532 32,500  Descending FlightAware UK
03:50AM 53.2560 3.2720 312° West 421 484 34,000  Climbing FlightAware
03:50AM 53.2780 3.2498 312° West 462 532 32,500  Descending FlightAware UK
03:50AM 53.3080 3.1760 312° West 420 483 34,000  Climbing FlightAware
03:50AM 53.3249 3.1632 312° West 462 532 32,500 -2,700 Descending FlightAware UK
03:51AM 53.3484 3.1200 312° West 462 532 32,500 3,060 Level FlightAware UK
03:51AM 53.3650 3.0700 312° West 421 484 34,000  Climbing FlightAware
03:51AM 53.3953 3.0335 312° West 462 532 32,500  Descending FlightAware UK
03:52AM 53.4170 2.9700 312° West 416 479 34,000  Climbing FlightAware
03:52AM 53.4361 2.9403 312° West 462 532 32,500 -2,400 Descending FlightAware UK
03:52AM 53.4548 2.8921 303° West 464 534 32,500 3,600 Level FlightAware UK
03:52AM 53.4630 2.8540 303° West 412 474 34,000  Climbing FlightAware
03:53AM 53.4855 2.8108 303° West 464 534 32,500  Descending FlightAware UK
03:53AM 53.5030 2.7460 303° West 411 473 34,000  Climbing FlightAware
03:53AM 53.5218 2.7136 303° West 464 534 32,500 -2,460 Descending FlightAware UK
03:54AM 53.5400 2.6648 302° West 464 534 32,500 3,420 Level FlightAware UK
03:54AM 53.5490 2.6240 302° West 411 473 34,000  Climbing FlightAware
03:54AM 53.5702 2.5837 302° West 464 534 32,500  Descending FlightAware UK
03:54AM 53.5900 2.5140 302° West 412 474 34,000  Climbing FlightAware
03:55AM 53.6065 2.4863 302° West 464 534 32,500  Descending FlightAware UK
03:55AM 53.6350 2.3910 302° West 412 474 34,000  Climbing FlightAware
03:55AM 53.6491 2.3720 302° West 466 536 32,500 -2,760 Descending FlightAware UK
03:56AM 53.6676 2.3225 302° West 464 534 32,500 3,600 Level FlightAware UK
03:56AM 53.6760 2.2800 302° West 413 475 34,000  Climbing FlightAware
03:56AM 53.6918 2.2576 302° West 466 536 32,500 -2,580 Descending FlightAware UK
03:56AM 53.7100 2.2083 302° West 466 536 32,500 3,900 Level FlightAware UK
03:57AM 53.7150 2.1740 302° West 413 475 34,000  Climbing FlightAware
03:57AM 53.7340 2.1430 302° West 468 539 32,500 -2,460 Descending FlightAware UK
03:57AM 53.7521 2.0935 302° West 466 536 32,500 3,420 Level FlightAware UK
03:57AM 53.7600 2.0520 302° West 412 474 34,000  Climbing FlightAware
03:58AM 53.7761 2.0274 302° West 468 539 32,500 -2,760 Descending FlightAware UK
03:58AM 53.7937 1.9789 302° West 464 534 32,500 3,720 Level FlightAware UK
03:58AM 53.8000 1.9430 302° West 412 474 34,000  Climbing FlightAware
03:58AM 53.8240 1.8956 302° West 464 534 32,500  Descending FlightAware UK
03:59AM 53.8390 1.8340 302° West 412 474 34,000  Climbing FlightAware
03:59AM 53.8598 1.7968 302° West 464 534 32,500 -2,460 Descending FlightAware UK
03:59AM 53.8778 1.7469 301° West 466 536 32,500 3,420 Level FlightAware UK
03:59AM 53.8840 1.7110 301° West 413 475 34,000  Climbing FlightAware
04:00AM 53.9018 1.6804 301° West 464 534 32,500 -2,700 Descending FlightAware UK
04:00AM 53.9195 1.6311 301° West 464 534 32,500 3,720 Level FlightAware UK
04:00AM 53.9230 1.6020 301° West 410 472 34,000  Climbing FlightAware
04:00AM 53.9433 1.5646 301° West 464 534 32,500  Descending FlightAware UK
04:01AM 53.9680 1.4750 301° West 411 473 34,000  Climbing FlightAware
04:01AM 53.9848 1.4485 301° West 464 534 32,500 -2,760 Descending FlightAware UK
04:01AM 54.0026 1.3986 301° West 464 534 32,500 3,600 Level FlightAware UK
04:01AM 54.0060 1.3690 301° West 411 473 34,000  Climbing FlightAware
04:02AM 54.0321 1.3152 301° West 460 529 32,500  Descending FlightAware UK
04:02AM 54.0510 1.2410 301° West 412 474 34,000  Climbing FlightAware
04:03AM 54.0737 1.1981 301° West 462 532 32,500  Descending FlightAware UK
04:03AM 54.0910 1.1290 301° West 413 475 34,000  Climbing FlightAware
04:03AM 54.1093 1.0972 301° West 464 534 32,500 -2,700 Descending FlightAware UK
04:03AM 54.1270 1.0467 301° West 464 534 32,500 3,720 Level FlightAware UK
04:04AM 54.1260 1.0300 301° West 413 475 34,000  Climbing FlightAware
04:04AM 54.1506 0.9798 301° West 462 532 32,500  Descending FlightAware UK
04:04AM 54.1720 0.8960 301° West 413 475 34,000  Climbing FlightAware
04:05AM 54.1919 0.8615 301° West 464 534 32,500  Descending FlightAware UK
04:05AM 54.2100 0.7870 301° West 414 476 34,000  Climbing FlightAware
04:05AM 54.2329 0.7432 301° West 466 536 32,500  Descending FlightAware UK
04:06AM 54.2510 0.6690 301° West 415 478 34,000  Climbing FlightAware
04:06AM 54.2741 0.6247 301° West 468 539 32,500  Descending FlightAware UK
04:06AM 54.2950 0.5420 301° West 413 475 34,000  Climbing FlightAware
04:07AM 54.3153 0.5045 301° West 468 539 32,500  Descending FlightAware UK
04:07AM 54.3330 0.4300 301° West 412 474 34,000  Climbing FlightAware
04:07AM 54.3619 0.3683 301° West 468 539 32,500  Descending FlightAware UK
04:08AM 54.3770 0.3020 301° West 410 472 34,000  Climbing FlightAware
04:08AM 54.4081 0.2323 301° West 466 536 32,500  Descending FlightAware UK
04:08AM 54.4150 0.1900 301° West 410 472 34,000  Climbing FlightAware
04:09AM 54.4540 0.0969 301° West 462 532 32,500  Descending FlightAware UK
04:09AM 54.4510 0.0810 301° West 409 471 34,000  Climbing FlightAware
04:10AM 54.4826 0.0119 301° West 464 534 32,500  Descending FlightAware UK
04:10AM 54.4950 -0.0490 301° West 408 470 34,000  Climbing FlightAware
04:10AM 54.5281 -0.1240 301° West 460 529 32,500  Descending FlightAware UK
04:11AM 54.5320 -0.1590 301° West 407 468 34,000  Climbing FlightAware
04:11AM 54.5565 -0.2088 301° West 458 527 32,500 -2,520 Descending FlightAware UK
04:11AM 54.5734 -0.2595 300° West 456 525 32,500 3,300 Level FlightAware UK
04:11AM 54.5740 -0.2870 300° West 403 464 34,000  Climbing FlightAware
04:12AM 54.6012 -0.3432 300° West 454 522 32,500  Descending FlightAware UK
04:12AM 54.6110 -0.3990 300° West 407 468 34,000  Climbing FlightAware
04:12AM 54.6348 -0.4448 300° West 456 525 32,500 -2,700 Descending FlightAware UK
04:13AM 54.6518 -0.4959 300° West 458 527 32,500 3,720 Level FlightAware UK
04:13AM 54.6480 -0.5110 300° West 410 472 34,000  Climbing FlightAware
04:13AM 54.6743 -0.5641 300° West 460 529 32,500  Descending FlightAware UK
04:13AM 54.6860 -0.6280 300° West 409 471 34,000  Climbing FlightAware
04:14AM 54.7140 -0.6855 300° West 460 529 32,500  Descending FlightAware UK
04:14AM 54.7270 -0.7530 300° West 408 470 34,000  Climbing FlightAware
04:14AM 54.7531 -0.8056 300° West 456 525 32,500  Descending FlightAware UK
04:15AM 54.7650 -0.8710 300° West 407 468 34,000  Climbing FlightAware
04:15AM 54.7975 -0.9425 300° West 452 520 32,500 -2,100 Descending FlightAware UK
04:15AM 54.8142 -0.9941 299° West 454 522 32,500 4,500 Level FlightAware UK
04:15AM 54.8060 -0.9960 299° West 410 472 34,000  Climbing FlightAware
04:16AM 54.8307 -1.0454 299° West 456 525 32,500 -2,700 Descending FlightAware UK
04:16AM 54.8475 -1.0975 299° West 456 525 32,500 3,720 Level FlightAware UK
04:16AM 54.8430 -1.1120 299° West 414 476 34,000  Climbing FlightAware
04:17AM 54.8760 -1.1865 299° West 456 525 32,500  Descending FlightAware UK
04:17AM 54.8810 -1.2290 299° West 420 483 34,000  Climbing FlightAware
04:17AM 54.9101 -1.2932 299° West 460 529 32,500  Descending FlightAware UK
04:18AM 54.9240 -1.3640 299° West 426 490 34,000 1,380 Climbing FlightAware
04:18AM 54.9620 -1.4850 299° West 430 495 34,000 -1,440 Level FlightAware
04:19AM 54.9965 -1.5658 299° West 470 541 32,500  Descending FlightAware UK
04:19AM 54.9980 -1.6000 299° West 434 499 34,000  Climbing FlightAware
04:20AM 55.0486 -1.7314 299° West 470 541 32,500  Descending FlightAware UK
04:20AM 55.0420 -1.7430 299° West 432 497 34,000 -300 Climbing FlightAware
04:20AM 55.0698 -1.8059 299° West 470 541 32,400 -2,580 Descending FlightAware UK
04:20AM 55.0855 -1.8618 296° West 470 541 32,500 4,140 Climbing FlightAware UK
04:20AM 55.0760 -1.8630 296° West 427 491 34,000  Climbing FlightAware
04:21AM 55.1064 -1.9365 296° West 468 539 32,500 -2,460 Descending FlightAware UK
04:21AM 55.1220 -1.9926 296° West 466 536 32,500 3,420 Level FlightAware UK
04:21AM 55.1170 -2.0080 296° West 426 490 34,000  Climbing FlightAware
04:21AM 55.1428 -2.0673 296° West 464 534 32,500 -2,700 Descending FlightAware UK
04:22AM 55.1583 -2.1226 296° West 462 532 32,500 3,720 Level FlightAware UK
04:22AM 55.1510 -2.1310 296° West 426 490 34,000  Climbing FlightAware
04:22AM 55.1842 -2.2159 296° West 462 532 32,500  Descending FlightAware UK
04:22AM 55.1820 -2.2450 296° West 426 490 34,000  Climbing FlightAware
04:22AM 55.1997 -2.2719 296° West 460 529 32,500 -5,400 Descending FlightAware UK
04:23AM 55.2151 -2.3279 296° West 458 527 32,200 -1,440 Descending FlightAware UK
04:23AM 55.2358 -2.4026 296° West 462 532 31,500 2,160 Descending FlightAware UK
04:23AM 55.2220 -2.3900 296° West 428 493 33,100 2,160 Climbing FlightAware
04:24AM 55.2570 -2.5160 296° West 428 493 33,000 -1,500 Descending FlightAware
04:24AM 55.2926 -2.6097 296° West 462 532 31,500  Descending FlightAware UK
04:25AM 55.2950 -2.6580 296° West 432 497 33,000  Climbing FlightAware
04:25AM 55.3338 -2.7616 296° West 466 536 31,500  Descending FlightAware UK
04:25AM 55.3300 -2.7870 296° West 435 501 33,000  Climbing FlightAware
04:26AM 55.3598 -2.8579 296° West 466 536 31,500 -2,520 Descending FlightAware UK
04:26AM 55.3754 -2.9158 295° West 468 539 31,500 3,300 Level FlightAware UK
04:26AM 55.3690 -2.9290 295° West 437 503 33,000  Climbing FlightAware
04:26AM 55.3962 -2.9931 295° West 472 543 31,500 -2,760 Descending FlightAware UK
04:27AM 55.4117 -3.0512 295° West 474 545 31,500 3,600 Level FlightAware UK
04:27AM 55.4010 -3.0510 295° West 437 503 33,000  Climbing FlightAware
04:27AM 55.4324 -3.1286 295° West 474 545 31,500 -2,580 Descending FlightAware UK
04:27AM 55.4476 -3.1859 295° West 476 548 31,500 3,900 Level FlightAware UK
04:27AM 55.4370 -3.1850 295° West 434 499 33,000  Climbing FlightAware
04:28AM 55.4731 -3.2822 295° West 474 545 31,500 -2,100 Descending FlightAware UK
04:28AM 55.4883 -3.3396 295° West 472 543 31,500 4,500 Level FlightAware UK
04:28AM 55.4740 -3.3250 295° West 430 495 33,000  Climbing FlightAware
04:28AM 55.5032 -3.3963 295° West 470 541 31,500  Descending FlightAware UK
04:29AM 55.5070 -3.4520 295° West 428 493 33,000  Climbing FlightAware
04:29AM 55.5381 -3.5292 295° West 470 541 31,500 -2,520 Descending FlightAware UK
04:29AM 55.5530 -3.5858 295° West 468 539 31,500 3,300 Level FlightAware UK
04:29AM 55.5450 -3.5950 295° West 425 489 33,000  Climbing FlightAware
04:30AM 55.5825 -3.6995 295° West 464 534 31,500  Descending FlightAware UK
04:30AM 55.5780 -3.7240 295° West 424 488 33,000  Climbing FlightAware
04:31AM 55.6119 -3.8128 295° West 464 534 31,500 -2,220 Descending FlightAware UK
04:31AM 55.6265 -3.8694 295° West 462 532 31,500 4,080 Level FlightAware UK
04:31AM 55.6140 -3.8610 295° West 422 486 33,000  Climbing FlightAware
04:31AM 55.6458 -3.9447 295° West 460 529 31,500  Descending FlightAware UK
04:32AM 55.6460 -3.9860 295° West 421 484 33,000  Climbing FlightAware
04:32AM 55.6747 -4.0575 295° West 458 527 31,500 -2,700 Descending FlightAware UK
04:32AM 55.6891 -4.1140 294° West 458 527 31,500 3,060 Level FlightAware UK
04:32AM 55.6820 -4.1280 294° West 422 486 33,000  Climbing FlightAware
04:33AM 55.7131 -4.2080 294° West 458 527 31,500 -2,460 Descending FlightAware UK
04:33AM 55.7276 -4.2645 295° West 460 529 31,500 4,260 Level FlightAware UK
04:33AM 55.7120 -4.2460 295° West 418 481 33,000  Climbing FlightAware
04:33AM 55.7466 -4.3401 295° West 456 525 31,500  Descending FlightAware UK
04:34AM 55.7430 -4.3690 295° West 419 482 33,000  Climbing FlightAware
04:34AM 55.7749 -4.4529 295° West 458 527 31,500 -2,700 Descending FlightAware UK
04:34AM 55.7892 -4.5093 294° West 458 527 31,500 3,060 Level FlightAware UK
04:34AM 55.7790 -4.5110 294° West 421 484 33,000  Climbing FlightAware
04:35AM 55.8130 -4.6057 294° West 458 527 31,500  Descending FlightAware UK
04:35AM 55.8050 -4.6160 294° West 423 487 33,000  Climbing FlightAware
04:35AM 55.8274 -4.6634 294° West 458 527 31,500 -4,500 Descending FlightAware UK
04:35AM 55.8419 -4.7210 294° West 460 529 31,500  Level FlightAware UK
04:36AM 55.8562 -4.7784 294° West 460 529 31,500 3,000 Level FlightAware UK
04:36AM 55.8480 -4.7880 294° West 426 490 33,000  Climbing FlightAware
04:36AM 55.8800 -4.8750 294° West 462 532 31,500 -2,520 Descending FlightAware UK
04:36AM 55.8943 -4.9333 294° West 460 529 31,500 4,080 Level FlightAware UK
04:36AM 55.8800 -4.9170 294° West 428 493 33,000  Climbing FlightAware
04:37AM 55.9134 -5.0110 294° West 460 529 31,500 -2,400 Descending FlightAware UK
04:37AM 55.9277 -5.0694 294° West 462 532 31,500 4,500 Level FlightAware UK
04:37AM 55.9110 -5.0460 294° West 429 494 33,000  Climbing FlightAware
04:37AM 55.9417 -5.1274 294° West 464 534 31,500 -2,700 Descending FlightAware UK
04:38AM 55.9560 -5.1862 293° West 464 534 31,500 3,060 Level FlightAware UK
04:38AM 55.9450 -5.1850 293° West 431 496 33,000  Climbing FlightAware
04:38AM 55.9798 -5.2844 293° West 464 534 31,500 -2,460 Descending FlightAware UK
04:39AM 55.9941 -5.3435 293° West 464 534 31,500 4,260 Level FlightAware UK
04:39AM 55.9800 -5.3260 293° West 433 498 33,000  Climbing FlightAware
04:39AM 56.0084 -5.4028 293° West 464 534 31,500 -2,760 Descending FlightAware UK
04:39AM 56.0226 -5.4623 293° West 466 536 31,500 3,000 Level FlightAware UK
04:39AM 56.0160 -5.4750 293° West 436 502 33,000  Climbing FlightAware
04:40AM 56.0463 -5.5618 293° West 466 536 31,500 -2,520 Descending FlightAware UK
04:40AM 56.0606 -5.6217 293° West 466 536 31,500 4,080 Level FlightAware UK
04:40AM 56.0480 -5.6100 293° West 438 504 33,000  Climbing FlightAware
04:40AM 56.0797 -5.7019 293° West 470 541 31,500 -2,400 Descending FlightAware UK
04:41AM 56.0940 -5.7622 293° West 472 543 31,500 4,500 Level FlightAware UK
04:41AM 56.0790 -5.7400 293° West 439 505 33,000  Climbing FlightAware
04:41AM 56.1082 -5.8224 293° West 470 541 31,500 -2,700 Descending FlightAware UK
04:41AM 56.1224 -5.8826 293° West 470 541 31,500 3,060 Level FlightAware UK
04:41AM 56.1150 -5.8940 293° West 437 503 33,000  Climbing FlightAware
04:42AM 56.1460 -5.9828 293° West 470 541 31,500 -2,460 Descending FlightAware UK
04:42AM 56.1600 -6.0429 293° West 472 543 31,500 4,260 Level FlightAware UK
04:42AM 56.1470 -6.0270 293° West 437 503 33,000  Climbing FlightAware
04:42AM 56.1785 -6.1231 293° West 470 541 31,500 -2,340 Descending FlightAware UK
04:43AM 56.1925 -6.1831 293° West 468 539 31,500 3,720 Level FlightAware UK
04:43AM 56.1820 -6.1760 293° West 436 502 33,000  Climbing FlightAware
04:43AM 56.2110 -6.2631 293° West 468 539 31,500 -2,520 Descending FlightAware UK
04:43AM 56.2248 -6.3231 293° West 468 539 31,500 4,080 Level FlightAware UK
04:43AM 56.2140 -6.3170 293° West 435 501 33,000  Climbing FlightAware
04:44AM 56.2432 -6.4030 293° West 466 536 31,500 -2,400 Descending FlightAware UK
04:44AM 56.2570 -6.4628 293° West 466 536 31,500 4,500 Level FlightAware UK
04:44AM 56.2450 -6.4500 293° West 434 499 33,000  Climbing FlightAware
04:45AM 56.2752 -6.5427 293° West 466 536 31,500 -2,280 Descending FlightAware UK
04:45AM 56.2886 -6.6019 292° West 466 536 31,500 3,900 Level FlightAware UK
04:45AM 56.2790 -6.6000 292° West 436 502 33,000  Climbing FlightAware
04:45AM 56.3159 -6.7217 292° West 464 534 31,500  Descending FlightAware UK
04:46AM 56.3100 -6.7330 292° West 436 502 33,000  Climbing FlightAware
04:46AM 56.3339 -6.8016 292° West 462 532 31,500 -2,760 Descending FlightAware UK
04:46AM 56.3473 -6.8615 292° West 462 532 31,500 3,000 Level FlightAware UK
04:46AM 56.3440 -6.8850 292° West 436 502 33,000  Climbing FlightAware
04:47AM 56.3696 -6.9615 292° West 462 532 31,500 -2,520 Descending FlightAware UK
04:47AM 56.3831 -7.0217 292° West 462 532 31,500 4,080 Level FlightAware UK
04:47AM 56.3740 -7.0200 292° West 437 503 33,000  Climbing FlightAware
04:47AM 56.4008 -7.1022 292° West 462 532 31,500 -2,400 Descending FlightAware UK
04:48AM 56.4141 -7.1626 292° West 460 529 31,500 3,600 Level FlightAware UK
04:48AM 56.4080 -7.1700 292° West 438 504 33,000  Climbing FlightAware
04:48AM 56.4320 -7.2433 292° West 460 529 31,500 -2,580 Descending FlightAware UK
04:48AM 56.4454 -7.3040 292° West 458 527 31,500  Level FlightAware UK
04:49AM 56.4590 -7.3648 292° West 458 527 31,500  Level FlightAware UK
04:49AM 56.4722 -7.4261 291° West 458 527 31,500  Level FlightAware UK
04:49AM 56.4857 -7.4877 292° West 462 532 31,500  Level FlightAware UK
04:50AM 56.4990 -7.5491 291° West 464 534 31,500  Level FlightAware UK
04:50AM 56.5126 -7.6111 292° West 464 534 31,500  Level FlightAware UK
04:50AM 56.5260 -7.6734 291° West 466 536 31,500  Level FlightAware UK
04:50AM 56.5394 -7.7357 291° West 466 536 31,500 2,400 Level FlightAware UK
04:51AM 56.5460 -7.7990 291° West 450 518 33,000  Climbing FlightAware
04:51AM 56.5707 -7.8818 291° West 468 539 31,500 -2,220 Descending FlightAware UK
04:51AM 56.5841 -7.9445 291° West 468 539 31,500 2,760 Level FlightAware UK
04:52AM 56.5870 -7.9900 291° West 452 520 33,000  Climbing FlightAware
04:52AM 56.6065 -8.0495 291° West 466 536 31,500 -2,700 Descending FlightAware UK
04:52AM 56.6198 -8.1126 291° West 466 536 31,500 3,720 Level FlightAware UK
04:52AM 56.6170 -8.1330 291° West 453 521 33,000  Climbing FlightAware
04:53AM 56.6377 -8.1968 291° West 468 539 31,500 -2,520 Descending FlightAware UK
04:53AM 56.6510 -8.2602 291° West 468 539 31,500 3,300 Level FlightAware UK
04:53AM 56.6510 -8.2910 291° West 454 522 33,000  Climbing FlightAware
04:53AM 56.6686 -8.3450 291° West 468 539 31,500 -2,760 Descending FlightAware UK
04:54AM 56.6818 -8.4086 291° West 468 539 31,500 3,600 Level FlightAware UK
04:54AM 56.6800 -8.4320 291° West 454 522 33,000  Climbing FlightAware
04:54AM 56.6994 -8.4934 291° West 466 536 31,500 -2,220 Descending FlightAware UK
04:54AM 56.7170 -8.5784 291° West 464 534 31,500 3,180 Level FlightAware UK
04:54AM 56.7140 -8.5940 291° West 456 525 33,000  Climbing FlightAware
04:55AM 56.7346 -8.6635 291° West 466 536 31,500 -2,400 Descending FlightAware UK
04:55AM 56.7479 -8.7275 291° West 468 539 31,500 4,500 Level FlightAware UK
04:55AM 56.7430 -8.7350 291° West 456 525 33,000  Climbing FlightAware
04:55AM 56.7610 -8.7916 291° West 466 536 31,500 -2,700 Descending FlightAware UK
04:56AM 56.7741 -8.8559 290° West 468 539 31,500 3,720 Level FlightAware UK
04:56AM 56.7710 -8.8730 290° West 457 526 33,000  Climbing FlightAware
04:56AM 56.7913 -8.9410 290° West 466 536 31,500 -2,520 Descending FlightAware UK
04:56AM 56.8043 -9.0057 290° West 464 534 31,500 3,300 Level FlightAware UK
04:57AM 56.8040 -9.0340 290° West 460 529 33,000 1,800 Climbing FlightAware
04:57AM 56.8340 -9.1820 290° West 461 531 33,000  Level FlightAware
04:58AM 56.8670 -9.3450 290° West 458 527 33,000  Level FlightAware
04:59AM 56.8960 -9.4940 290° West 458 527 33,000  Level FlightAware
04:59AM 56.9250 -9.6390 290° West 459 528 33,000  Level FlightAware
05:00AM 56.9580 -9.8070 290° West 460 529 33,000  Level FlightAware
05:01AM 56.9860 -9.9520 290° West 463 533 33,000  Level FlightAware
05:01AM 57.0250 -10.1240 293° West 470 541 33,000  Level FlightAware
05:02AM 57.0600 -10.2630 295° West 472 543 33,000  Level FlightAware
05:03AM 57.1030 -10.4340 295° West 473 544 33,000  Level FlightAware
05:04AM 57.1380 -10.5740 295° West 473 544 33,000  Level FlightAware
05:04AM 57.1740 -10.7230 294° West 474 545 33,000  Level FlightAware
05:05AM 57.2140 -10.8870 294° West 474 545 33,000  Level FlightAware
05:06AM 57.2510 -11.0370 295° West 474 545 33,000  Level FlightAware
05:06AM 57.2910 -11.2060 294° West 473 544 33,000  Level FlightAware
05:07AM 57.3330 -11.3860 293° West 473 544 33,000  Level FlightAware
05:10AM 57.3544 -11.8498 275° West  Level Estimated
05:10AM 57.4770 -12.0020 275° West 465 535 33,000  Level FlightAware
05:11AM 57.5040 -12.1290 292° West 465 535 33,000  Level FlightAware
05:11AM 57.5320 -12.2550 293° West 465 535 33,000  Level FlightAware
05:12AM 57.5660 -12.4130 292° West 465 535 33,000  Level FlightAware
05:13AM 57.5930 -12.5390 292° West 465 535 33,000  Level FlightAware
05:14AM 57.6210 -12.6660 292° West 465 535 33,000  Level FlightAware
05:14AM 57.6480 -12.7930 292° West 465 535 33,000  Level FlightAware
05:15AM 57.6750 -12.9190 292° West 465 535 33,000  Level FlightAware
05:16AM 57.7100 -13.0780 292° West 465 535 33,000  Level FlightAware
05:16AM 57.7370 -13.2050 292° West 465 535 33,000  Level FlightAware
05:17AM 57.7640 -13.3320 292° West 465 535 33,000  Level FlightAware
05:18AM 57.7920 -13.4590 293° West 465 535 33,000  Level FlightAware
05:18AM 57.8190 -13.5870 292° West 465 535 33,000  Level FlightAware
05:19AM 57.8530 -13.7460 292° West 465 535 33,000  Level FlightAware
05:22AM 57.8639 -14.2356 273° West  Level Estimated
05:23AM 57.8681 -14.4501 272° West  Level Estimated
05:24AM 57.9166 -14.6594 294° West  Level FlightAware Approximate
05:25AM 57.9647 -14.8692 293° West  Level FlightAware Approximate
05:26AM 58.0125 -15.0796 293° West  Level FlightAware Approximate
05:27AM 58.0599 -15.2906 293° West  Level FlightAware Approximate
05:28AM 58.1070 -15.5021 293° West  Level FlightAware Approximate
05:29AM 58.1537 -15.7142 293° West  Level FlightAware Approximate
05:30AM 58.2001 -15.9268 293° West  Level FlightAware Approximate
05:31AM 58.2462 -16.1400 292° West  Level FlightAware Approximate
05:32AM 58.2918 -16.3538 292° West  Level FlightAware Approximate
05:33AM 58.3371 -16.5681 292° West  Level FlightAware Approximate
05:34AM 58.3821 -16.7829 292° West  Level FlightAware Approximate
05:35AM 58.4267 -16.9983 292° West  Level FlightAware Approximate
05:36AM 58.4709 -17.2142 291° West  Level FlightAware Approximate
05:37AM 58.5148 -17.4307 291° West  Level FlightAware Approximate
05:38AM 58.5583 -17.6477 291° West  Level FlightAware Approximate
05:39AM 58.6014 -17.8652 291° West  Level FlightAware Approximate
05:40AM 58.6442 -18.0833 291° West  Level FlightAware Approximate
05:41AM 58.6866 -18.3019 291° West  Level FlightAware Approximate
05:42AM 58.7286 -18.5210 290° West  Level FlightAware Approximate
05:43AM 58.7703 -18.7407 290° West  Level FlightAware Approximate
05:44AM 58.8115 -18.9609 290° West  Level FlightAware Approximate
05:45AM 58.8524 -19.1816 290° West  Level FlightAware Approximate
05:46AM 58.8930 -19.4029 290° West  Level FlightAware Approximate
05:46AM 59.0000 -20.0000 285° West 453 521 33,000  Level ETMS Enhanced Traffic Management System
05:47AM 58.9331 -19.6246 289° West  Level FlightAware Approximate
05:48AM 58.9729 -19.8469 289° West  Level FlightAware Approximate
05:49AM 59.0109 -20.0774 285° West  Level FlightAware Approximate
05:50AM 59.0425 -20.3050 285° West  Level FlightAware Approximate
05:51AM 59.0738 -20.5330 285° West  Level FlightAware Approximate
05:52AM 59.2242 -21.6623 284° West 453 521 33,000  Level FlightAware Transoceanic
05:53AM 59.2544 -21.9015 284° West 453 521 33,000  Level FlightAware Transoceanic
05:54AM 59.2843 -22.1412 284° West 453 521 33,000  Level FlightAware Transoceanic
05:55AM 59.3137 -22.3812 283° West 453 521 33,000  Level FlightAware Transoceanic
05:56AM 59.3426 -22.6217 283° West 453 521 33,000  Level FlightAware Transoceanic
05:57AM 59.3711 -22.8626 283° West 453 521 33,000  Level FlightAware Transoceanic
05:58AM 59.3992 -23.1038 283° West 453 521 33,000  Level FlightAware Transoceanic
05:59AM 59.4268 -23.3455 283° West 453 521 33,000  Level FlightAware Transoceanic
06:00AM 59.4540 -23.5876 282° West 453 521 33,000  Level FlightAware Transoceanic
06:01AM 59.4807 -23.8300 282° West 453 521 33,000  Level FlightAware Transoceanic
06:02AM 59.5070 -24.0729 282° West 453 521 33,000  Level FlightAware Transoceanic
06:03AM 59.5328 -24.3161 282° West 453 521 33,000  Level FlightAware Transoceanic
06:04AM 59.5582 -24.5597 282° West 453 521 33,000  Level FlightAware Transoceanic
06:05AM 59.5831 -24.8036 281° West 453 521 33,000  Level FlightAware Transoceanic
06:06AM 59.6076 -25.0479 281° West 453 521 33,000  Level FlightAware Transoceanic
06:07AM 59.6316 -25.2926 281° West 453 521 33,000  Level FlightAware Transoceanic
06:08AM 59.6552 -25.5376 281° West 453 521 33,000  Level FlightAware Transoceanic
06:09AM 59.6783 -25.7829 280° West 453 521 33,000  Level FlightAware Transoceanic
06:10AM 59.7009 -26.0286 280° West 453 521 33,000  Level FlightAware Transoceanic
06:11AM 59.7231 -26.2746 280° West 453 521 33,000  Level FlightAware Transoceanic
06:12AM 59.7448 -26.5210 280° West 453 521 33,000  Level FlightAware Transoceanic
06:13AM 59.7661 -26.7676 280° West 453 521 33,000  Level FlightAware Transoceanic
06:14AM 59.7869 -27.0146 279° West 453 521 33,000  Level FlightAware Transoceanic
06:15AM 59.8072 -27.2618 279° West 453 521 33,000  Level FlightAware Transoceanic
06:16AM 59.8271 -27.5094 279° West 453 521 33,000  Level FlightAware Transoceanic
06:17AM 59.8465 -27.7572 279° West 453 521 33,000  Level FlightAware Transoceanic
06:18AM 59.8654 -28.0054 279° West 453 521 33,000  Level FlightAware Transoceanic
06:19AM 59.8839 -28.2538 278° West 453 521 33,000  Level FlightAware Transoceanic
06:20AM 59.9019 -28.5025 278° West 453 521 33,000  Level FlightAware Transoceanic
06:21AM 59.9194 -28.7514 278° West 453 521 33,000  Level FlightAware Transoceanic
06:22AM 59.9365 -29.0007 278° West 453 521 33,000  Level FlightAware Transoceanic
06:23AM 59.9530 -29.2501 277° West 453 521 33,000  Level FlightAware Transoceanic
06:24AM 59.9692 -29.4998 277° West 453 521 33,000  Level FlightAware Transoceanic
06:25AM 59.9848 -29.7498 277° West 453 521 33,000  Level FlightAware Transoceanic
06:26AM 59.9994 -29.9907 277° West  Level FlightAware Approximate
06:27AM 60.0137 -30.2317 277° West  Level FlightAware Approximate
06:28AM 60.0083 -30.2233 274° West  Level FlightAware Approximate
06:29AM 60.0168 -30.4654 274° West  Level FlightAware Approximate
06:30AM 60.0249 -30.7077 274° West  Level FlightAware Approximate
06:31AM 60.0326 -30.9501 274° West  Level FlightAware Approximate
06:32AM 60.0398 -31.1926 274° West  Level FlightAware Approximate
06:33AM 60.0465 -31.4352 273° West  Level FlightAware Approximate
06:34AM 60.0528 -31.6779 273° West  Level FlightAware Approximate
06:35AM 60.0587 -31.9207 273° West  Level FlightAware Approximate
06:36AM 60.0641 -32.1636 273° West  Level FlightAware Approximate
06:37AM 60.0691 -32.4066 272° West  Level FlightAware Approximate
06:38AM 60.0737 -32.6496 272° West  Level FlightAware Approximate
06:39AM 60.0778 -32.8927 272° West  Level FlightAware Approximate
06:40AM 60.0814 -33.1358 272° West  Level FlightAware Approximate
06:41AM 60.0846 -33.3790 272° West  Level FlightAware Approximate
06:42AM 60.0873 -33.6222 271° West  Level FlightAware Approximate
06:43AM 60.0896 -33.8655 271° West  Level FlightAware Approximate
06:43AM 60.0000 -30.0000 274° West 473 544 33,000  Level ETMS Enhanced Traffic Management System
06:44AM 60.0915 -34.1088 271° West  Level FlightAware Approximate
06:45AM 60.0929 -34.3522 271° West  Level FlightAware Approximate
06:46AM 60.0939 -34.5955 271° West  Level FlightAware Approximate
06:47AM 60.0944 -34.8389 270° West  Level FlightAware Approximate
06:48AM 60.0945 -35.0822 270° West  Level FlightAware Approximate
06:49AM 60.0941 -35.3256 270° West  Level FlightAware Approximate
06:50AM 60.0921 -35.7909 269° West 473 544 33,000  Level FlightAware Transoceanic
06:51AM 60.0903 -36.0546 269° West 473 544 33,000  Level FlightAware Transoceanic
06:52AM 60.0879 -36.3181 269° West 473 544 33,000  Level FlightAware Transoceanic
06:53AM 60.0851 -36.5817 269° West 473 544 33,000  Level FlightAware Transoceanic
06:54AM 60.0816 -36.8451 268° West 473 544 33,000  Level FlightAware Transoceanic
06:55AM 60.0777 -37.1086 268° West 473 544 33,000  Level FlightAware Transoceanic
06:56AM 60.0733 -37.3719 268° West 473 544 33,000  Level FlightAware Transoceanic
06:57AM 60.0683 -37.6352 268° West 473 544 33,000  Level FlightAware Transoceanic
06:58AM 60.0628 -37.8984 267° West 473 544 33,000  Level FlightAware Transoceanic
06:59AM 60.0568 -38.1615 267° West 473 544 33,000  Level FlightAware Transoceanic
07:00AM 60.0502 -38.4245 267° West 473 544 33,000  Level FlightAware Transoceanic
07:01AM 60.0432 -38.6874 267° West 473 544 33,000  Level FlightAware Transoceanic
07:02AM 60.0356 -38.9502 267° West 473 544 33,000  Level FlightAware Transoceanic
07:03AM 60.0275 -39.2129 266° West 473 544 33,000  Level FlightAware Transoceanic
07:04AM 60.0188 -39.4754 266° West 473 544 33,000  Level FlightAware Transoceanic
07:05AM 60.0097 -39.7378 266° West 473 544 33,000  Level FlightAware Transoceanic
07:06AM 60.0008 -39.9798 266° West  Level FlightAware Approximate
07:07AM 59.9914 -40.2217 266° West  Level FlightAware Approximate
07:08AM 59.9699 -40.1930 253° West  Level FlightAware Approximate
07:09AM 59.9335 -40.4241 253° West  Level FlightAware Approximate
07:10AM 59.8966 -40.6547 252° West  Level FlightAware Approximate
07:11AM 59.8594 -40.8848 252° West  Level FlightAware Approximate
07:12AM 59.8218 -41.1144 252° West  Level FlightAware Approximate
07:13AM 59.7837 -41.3435 252° West  Level FlightAware Approximate
07:14AM 59.7453 -41.5720 252° West  Level FlightAware Approximate
07:15AM 59.7064 -41.8000 251° West  Level FlightAware Approximate
07:16AM 59.6672 -42.0275 251° West  Level FlightAware Approximate
07:17AM 59.6275 -42.2544 251° West  Level FlightAware Approximate
07:18AM 59.5875 -42.4809 251° West  Level FlightAware Approximate
07:19AM 59.5471 -42.7067 251° West  Level FlightAware Approximate
07:20AM 59.5063 -42.9320 250° West  Level FlightAware Approximate
07:21AM 59.4659 -43.1574 251° West  Level FlightAware Approximate
07:22AM 59.4253 -43.3823 251° West  Level FlightAware Approximate
07:23AM 59.3842 -43.6066 250° West  Level FlightAware Approximate
07:24AM 59.3428 -43.8304 250° West  Level FlightAware Approximate
07:25AM 59.3010 -44.0536 250° West  Level FlightAware Approximate
07:26AM 59.2588 -44.2763 250° West  Level FlightAware Approximate
07:26AM 60.0000 -40.0000 253° West 461 531 33,000  Level ETMS Enhanced Traffic Management System
07:27AM 59.2162 -44.4985 250° West  Level FlightAware Approximate
07:28AM 59.1733 -44.7201 249° West  Level FlightAware Approximate
07:29AM 59.1300 -44.9411 249° West  Level FlightAware Approximate
07:30AM 59.0863 -45.1616 249° West  Level FlightAware Approximate
07:31AM 59.0422 -45.3815 249° West  Level FlightAware Approximate
07:32AM 58.8334 -46.4162 248° West 461 531 33,000  Level FlightAware Transoceanic
07:33AM 58.7843 -46.6451 247° West 461 531 33,000  Level FlightAware Transoceanic
07:34AM 58.7347 -46.8734 247° West 461 531 33,000  Level FlightAware Transoceanic
07:35AM 58.6848 -47.1010 247° West 461 531 33,000  Level FlightAware Transoceanic
07:36AM 58.6345 -47.3280 247° West 461 531 33,000  Level FlightAware Transoceanic
07:37AM 58.5838 -47.5543 247° West 461 531 33,000  Level FlightAware Transoceanic
07:38AM 58.5326 -47.7800 246° West 461 531 33,000  Level FlightAware Transoceanic
07:39AM 58.4811 -48.0050 246° West 461 531 33,000  Level FlightAware Transoceanic
07:40AM 58.4292 -48.2293 246° West 461 531 33,000  Level FlightAware Transoceanic
07:41AM 58.3769 -48.4530 246° West 461 531 33,000  Level FlightAware Transoceanic
07:42AM 58.3242 -48.6760 246° West 461 531 33,000  Level FlightAware Transoceanic
07:43AM 58.2711 -48.8983 245° Southwest 461 531 33,000  Level FlightAware Transoceanic
07:44AM 58.2177 -49.1200 245° Southwest 461 531 33,000  Level FlightAware Transoceanic
07:45AM 58.1638 -49.3410 245° Southwest 461 531 33,000  Level FlightAware Transoceanic
07:46AM 58.1096 -49.5614 245° Southwest 461 531 33,000  Level FlightAware Transoceanic
07:47AM 58.0550 -49.7810 245° Southwest 461 531 33,000 360 Level FlightAware Transoceanic
07:48AM 58.0030 -49.9881 245° Southwest  Level FlightAware Approximate
07:49AM 57.9507 -50.1945 245° Southwest  Level FlightAware Approximate
07:50AM 57.9671 -50.1927 252° West  Level FlightAware Approximate
07:51AM 57.9296 -50.4102 252° West  Level FlightAware Approximate
07:51AM 58.0000 -50.0000 252° West 456 525 35,000  Level ETMS Enhanced Traffic Management System
07:52AM 57.8917 -50.6271 252° West  Level FlightAware Approximate
07:53AM 57.8534 -50.8436 252° West  Level FlightAware Approximate
07:54AM 57.8148 -51.0597 252° West  Level FlightAware Approximate
07:55AM 57.7758 -51.2753 251° West  Level FlightAware Approximate
07:56AM 57.7364 -51.4904 251° West  Level FlightAware Approximate
07:57AM 57.6388 -52.0289 251° West 456 525 35,000  Level FlightAware Transoceanic
07:58AM 57.5967 -52.2518 250° West 456 525 35,000  Level FlightAware Transoceanic
07:59AM 57.5542 -52.4742 250° West 456 525 35,000  Level FlightAware Transoceanic
08:00AM 57.5113 -52.6961 250° West 456 525 35,000  Level FlightAware Transoceanic
08:01AM 57.4680 -52.9174 250° West 456 525 35,000  Level FlightAware Transoceanic
08:02AM 57.4243 -53.1382 250° West 456 525 35,000  Level FlightAware Transoceanic
08:03AM 57.3802 -53.3585 250° West 456 525 35,000  Level FlightAware Transoceanic
08:04AM 57.3358 -53.5782 249° West 456 525 35,000  Level FlightAware Transoceanic
08:05AM 57.2910 -53.7975 249° West 456 525 35,000  Level FlightAware Transoceanic
08:06AM 57.2458 -54.0161 249° West 456 525 35,000  Level FlightAware Transoceanic
08:07AM 57.2002 -54.2343 249° West 456 525 35,000  Level FlightAware Transoceanic
08:08AM 57.1542 -54.4519 249° West 456 525 35,000  Level FlightAware Transoceanic
08:09AM 57.1079 -54.6689 248° West 456 525 35,000  Level FlightAware Transoceanic
08:10AM 57.0611 -54.8855 248° West 456 525 35,000  Level FlightAware Transoceanic
08:11AM 57.0141 -55.1014 248° West 456 525 35,000  Level FlightAware Transoceanic
08:11AM 57.0500 -54.9333 247° West 450 518 35,000  Level Gander Center
08:12AM 56.9666 -55.3169 248° West 456 525 35,000  Level FlightAware Transoceanic
08:12AM 57.0000 -55.0833 239° Southwest 450 518 35,000  Level Gander Center
08:13AM 56.9188 -55.5317 248° West 456 525 35,000  Level FlightAware Transoceanic
08:13AM 56.9667 -55.3333 256° West 460 529 35,000  Level Gander Center
08:14AM 56.8706 -55.7461 248° West 456 525 35,000  Level FlightAware Transoceanic
08:14AM 56.9167 -55.5667 249° West 460 529 35,000  Level Gander Center
08:15AM 56.8220 -55.9598 247° West 456 525 35,000  Level FlightAware Transoceanic
08:15AM 56.8667 -55.7833 247° West 450 518 35,000  Level Gander Center
08:16AM 56.7731 -56.1730 247° West 456 525 35,000  Level FlightAware Transoceanic
08:16AM 56.8167 -56.0000 247° West 450 518 35,000  Level Gander Center
08:17AM 56.7238 -56.3857 247° West 456 525 35,000  Level FlightAware Transoceanic
08:17AM 56.7667 -56.2167 247° West 460 529 35,000  Level Gander Center
08:18AM 56.7000 -56.3833 234° Southwest 460 529 35,000  Level Gander Center
08:19AM 56.6000 -56.5833 228° Southwest 470 541 35,000  Level Gander Center
08:20AM 56.5167 -56.7333 225° Southwest 470 541 35,000  Level Gander Center
08:21AM 56.4333 -56.9333 233° Southwest 470 541 35,000  Level Gander Center
08:22AM 56.3333 -57.1000 223° Southwest 470 541 35,000  Level Gander Center
08:23AM 56.2333 -57.2500 220° Southwest 470 541 35,000  Level Gander Center
08:24AM 56.1667 -57.4500 239° Southwest 460 529 35,000  Level Gander Center
08:25AM 56.0667 -57.6000 220° Southwest 460 529 35,000  Level Gander Center
08:26AM 55.9833 -57.7667 228° Southwest 460 529 35,000 360 Level Gander Center
08:27AM 55.8833 -57.9167 220° Southwest 460 529 35,800 1,020 Climbing Gander Center
08:28AM 55.8000 -58.1000 231° Southwest 460 529 37,100 1,080 Climbing Gander Center
08:29AM 55.7167 -58.2500 225° Southwest 460 529 38,000 420 Climbing Gander Center
08:30AM 55.6167 -58.4167 223° Southwest 460 529 38,000  Level Gander Center
08:31AM 55.5333 -58.5667 226° Southwest 450 518 38,000  Level Gander Center
08:32AM 55.4500 -58.7500 231° Southwest 450 518 38,000  Level Gander Center
08:33AM 55.3667 -58.9000 226° Southwest 450 518 38,000  Level Gander Center
08:34AM 55.2667 -59.0833 226° Southwest 450 518 38,000  Level Gander Center
08:35AM 55.1667 -59.2333 221° Southwest 460 529 38,000  Level Gander Center
08:36AM 55.0833 -59.3833 226° Southwest 460 529 38,000  Level Gander Center
08:37AM 54.9833 -59.5667 226° Southwest 460 529 38,000  Level Gander Center
08:38AM 54.9000 -59.7167 226° Southwest 460 529 38,000  Level Gander Center
08:39AM 54.8000 -59.8667 221° Southwest 460 529 38,000  Level Gander Center
08:40AM 54.7333 -60.0167 232° Southwest 460 529 38,000  Level Gander Center
08:41AM 54.6333 -60.1500 218° Southwest 460 529 38,000  Level Gander Center
08:42AM 54.5333 -60.3333 227° Southwest 460 529 38,000  Level Gander Center
08:43AM 54.4500 -60.4833 226° Southwest 460 529 38,000  Level Gander Center
08:44AM 54.3500 -60.6167 218° Southwest 460 529 38,000  Level Gander Center
08:45AM 54.2667 -60.8000 232° Southwest 460 529 38,000  Level Gander Center
08:46AM 54.1667 -60.9333 218° Southwest 460 529 38,000  Level Gander Center
08:47AM 54.0833 -61.0833 227° Southwest 460 529 38,000  Level Gander Center
08:48AM 53.9833 -61.2333 221° Southwest 450 518 38,000  Level Gander Center
08:49AM 53.9000 -61.3667 223° Southwest 450 518 38,000  Level Gander Center
08:50AM 53.8167 -61.5167 227° Southwest 450 518 38,000  Level Gander Center
08:51AM 53.7167 -61.6833 225° Southwest 450 518 38,000  Level Gander Center
08:52AM 53.6333 -61.8167 224° Southwest 450 518 38,000  Level Gander Center
08:53AM 53.5333 -61.9500 218° Southwest 450 518 38,000  Level Gander Center
08:54AM 53.4500 -62.1000 227° Southwest 450 518 38,000  Level Gander Center
08:55AM 53.3500 -62.2667 225° Southwest 450 518 38,000  Level Gander Center
08:56AM 53.2500 -62.4000 219° Southwest 450 518 38,000  Level Gander Center
08:57AM 53.1500 -62.5333 219° Southwest 450 518 38,000  Level Gander Center
08:58AM 53.0667 -62.6667 224° Southwest 450 518 38,000  Level Gander Center
08:59AM 52.9667 -62.8167 222° Southwest 450 518 38,000  Level Gander Center
09:00AM 52.8833 -62.9667 227° Southwest 450 518 38,000  Level Gander Center
09:01AM 52.7833 -63.0833 215° Southwest 450 518 38,000  Level Gander Center
09:02AM 52.6833 -63.2333 222° Southwest 450 518 38,000  Level Gander Center
09:03AM 52.6000 -63.3667 224° Southwest 450 518 38,000  Level Gander Center
09:04AM 52.4833 -63.5000 215° Southwest 460 529 38,000  Level Gander Center
09:05AM 52.3833 -63.6333 219° Southwest 460 529 38,000  Level Gander Center
09:06AM 52.3000 -63.7667 224° Southwest 450 518 38,000  Level Gander Center
09:07AM 52.2000 -63.9000 219° Southwest 450 518 38,000  Level Gander Center
09:08AM 52.1167 -64.0333 225° Southwest 450 518 38,000  Level Gander Center
09:09AM 52.0000 -64.1667 215° Southwest 450 518 38,000  Level Gander Center
09:10AM 51.9000 -64.2833 216° Southwest 450 518 38,000  Level Gander Center
09:11AM 51.8167 -64.4167 225° Southwest 450 518 38,000  Level Gander Center
09:12AM 51.7167 -64.5500 220° Southwest 450 518 38,000  Level Gander Center
09:13AM 51.6167 -64.6833 220° Southwest 450 518 38,000  Level Gander Center
09:14AM 51.5167 -64.8000 216° Southwest 450 518 38,000  Level Gander Center
09:15AM 51.4333 -64.9333 225° Southwest 450 518 38,000  Level Gander Center
09:16AM 51.3333 -65.0500 216° Southwest 450 518 38,000  Level Gander Center
09:17AM 51.2167 -65.1833 216° Southwest 460 529 38,000  Level Gander Center
09:18AM 51.1167 -65.3000 216° Southwest 460 529 38,000  Level Gander Center
09:19AM 51.0333 -65.4333 225° Southwest 460 529 38,000  Level Gander Center
09:20AM 50.9333 -65.5500 216° Southwest 460 529 38,000  Level Gander Center
09:21AM 50.8167 -65.6833 216° Southwest 460 529 38,000  Level Gander Center
09:21AM 50.7833 -65.7000 198° South 460 529 38,000  Level Montreal Center
09:22AM 50.7000 -65.8167 222° Southwest 460 529 38,000  Level Montreal Center
09:23AM 50.5833 -65.9167 209° Southwest 460 529 38,000  Level Montreal Center
09:24AM 50.5000 -66.0500 226° Southwest 460 529 38,000  Level Montreal Center
09:25AM 50.4000 -66.1833 220° Southwest 450 518 38,000  Level Montreal Center
09:26AM 50.2833 -66.3167 216° Southwest 450 518 38,000  Level Montreal Center
09:27AM 50.2000 -66.4333 222° Southwest 460 529 38,000  Level Montreal Center
09:28AM 50.0833 -66.5667 216° Southwest 450 518 38,000  Level Montreal Center
09:29AM 50.0000 -66.6667 218° Southwest 450 518 38,000  Level Montreal Center
09:30AM 49.8833 -66.7833 213° Southwest 460 529 38,000  Level Montreal Center
09:31AM 49.8000 -66.9167 226° Southwest 460 529 38,000  Level Montreal Center
09:32AM 49.6833 -67.0333 213° Southwest 460 529 38,000  Level Montreal Center
09:33AM 49.5833 -67.1667 221° Southwest 460 529 38,000  Level Montreal Center
09:34AM 49.4833 -67.2500 208° Southwest 460 529 38,000  Level Montreal Center
09:35AM 49.3833 -67.3833 221° Southwest 460 529 38,000  Level Montreal Center
09:36AM 49.2833 -67.5000 217° Southwest 460 529 38,000  Level Montreal Center
09:37AM 49.1667 -67.6167 213° Southwest 460 529 38,000  Level Montreal Center
09:38AM 49.0833 -67.7333 223° Southwest 450 518 38,000  Level Montreal Center
09:39AM 48.9667 -67.8667 217° Southwest 450 518 38,000  Level Montreal Center
09:40AM 48.8833 -67.9500 213° Southwest 450 518 38,000  Level Montreal Center
09:41AM 48.7667 -68.0833 217° Southwest 450 518 38,000  Level Montreal Center
09:42AM 48.6667 -68.2000 218° Southwest 450 518 38,000  Level Montreal Center
09:43AM 48.5667 -68.3167 218° Southwest 450 518 38,000  Level Montreal Center
09:44AM 48.4500 -68.4333 214° Southwest 450 518 38,000  Level Montreal Center
09:45AM 48.3667 -68.5167 214° Southwest 450 518 38,000  Level Montreal Center
09:46AM 48.2500 -68.6333 214° Southwest 450 518 38,000  Level Montreal Center
09:47AM 48.1500 -68.7500 218° Southwest 450 518 38,000  Level Montreal Center
09:48AM 48.0667 -68.8667 223° Southwest 450 518 38,000  Level Montreal Center
09:49AM 47.9500 -68.9833 214° Southwest 450 518 38,000  Level Montreal Center
09:50AM 47.8667 -69.1000 223° Southwest 450 518 38,000  Level Montreal Center
09:51AM 47.7500 -69.2167 214° Southwest 450 518 38,000  Level Montreal Center
09:52AM 47.6500 -69.3000 209° Southwest 450 518 38,000  Level Montreal Center
09:53AM 47.5500 -69.4167 218° Southwest 450 518 38,000  Level Montreal Center
09:54AM 47.4500 -69.5333 218° Southwest 450 518 38,000  Level Montreal Center
09:55AM 47.3500 -69.6167 209° Southwest 440 506 38,000  Level Montreal Center
09:56AM 47.2500 -69.7333 218° Southwest 440 506 38,000  Level Montreal Center
09:57AM 47.1500 -69.8500 218° Southwest 440 506 38,000  Level Montreal Center
09:58AM 47.0500 -69.9500 214° Southwest 440 506 38,000  Level Montreal Center
09:59AM 46.9333 -70.0333 206° Southwest 440 506 38,000  Level Montreal Center
10:00AM 46.8500 -70.1500 224° Southwest 440 506 38,000  Level Montreal Center
10:01AM 46.7500 -70.2667 219° Southwest 440 506 38,000  Level Montreal Center
10:02AM 46.6333 -70.3667 210° Southwest 440 506 38,000  Level Montreal Center
10:03AM 46.5333 -70.4500 210° Southwest 440 506 38,000  Level Montreal Center
10:04AM 46.4333 -70.5667 219° Southwest 440 506 38,000  Level Montreal Center
10:05AM 46.3333 -70.6667 215° Southwest 440 506 38,000  Level Montreal Center
10:06AM 46.2333 -70.7500 210° Southwest 440 506 38,000  Level Montreal Center
10:07AM 46.1167 -70.8667 215° Southwest 440 506 38,000  Level Montreal Center
10:08AM 46.0333 -70.9667 220° Southwest 440 506 38,000  Level Montreal Center
10:09AM 45.9333 -71.0667 215° Southwest 440 506 38,000  Level Montreal Center
10:10AM 45.8333 -71.1500 210° Southwest 440 506 38,000  Level Montreal Center
10:11AM 45.7167 -71.2667 215° Southwest 440 506 38,000  Level Montreal Center
10:12AM 45.6333 -71.3667 220° Southwest 440 506 38,000  Level Montreal Center
10:13AM 45.5333 -71.4500 210° Southwest 440 506 38,000 -300 Level Montreal Center
10:14AM 45.4167 -71.5500 211° Southwest 440 506 37,400 -540 Descending Montreal Center
10:15AM 45.3167 -71.6500 215° Southwest 440 506 37,000 -60 Descending Montreal Center
10:21AM 44.8380 -72.3280 215° Southwest 432 497 37,000  Level FlightAware
10:22AM 44.7690 -72.3830 210° Southwest 429 494 37,000  Level FlightAware
10:22AM 44.6990 -72.4380 209° Southwest 427 491 37,000 -600 Level FlightAware
10:23AM 44.6250 -72.4970 210° Southwest 429 494 36,200 -720 Descending FlightAware
10:24AM 44.5580 -72.5500 209° Southwest 429 494 36,000 -180 Descending FlightAware
10:25AM 44.4760 -72.6150 209° Southwest 424 488 36,000  Level FlightAware
10:25AM 44.4090 -72.6690 210° Southwest 423 487 36,000  Level FlightAware
10:26AM 44.3510 -72.7140 209° Southwest 424 488 36,000  Level FlightAware
10:27AM 44.2720 -72.7770 210° Southwest 424 488 36,000  Level FlightAware
10:27AM 44.1960 -72.8360 209° Southwest 424 488 36,000  Level FlightAware
10:28AM 44.1300 -72.8880 209° Southwest 422 486 36,000  Level FlightAware
10:29AM 44.0730 -72.9320 209° Southwest 421 484 36,000  Level FlightAware
10:29AM 44.0280 -72.9680 210° Southwest 422 486 36,000  Level FlightAware
10:30AM 43.9560 -73.0240 209° Southwest 422 486 36,000  Level FlightAware
10:31AM 43.8820 -73.0820 209° Southwest 422 486 36,000  Level FlightAware
10:31AM 43.8060 -73.1400 209° Southwest 424 488 36,000  Level FlightAware
10:32AM 43.7370 -73.1940 209° Southwest 424 488 36,000 -120 Level FlightAware
10:33AM 43.6730 -73.2440 209° Southwest 424 488 35,900 -1,200 Descending FlightAware
10:33AM 43.5890 -73.3090 209° Southwest 424 488 34,300 -2,100 Descending FlightAware
10:34AM 43.5490 -73.3400 209° Southwest 427 491 33,300 -2,580 Descending FlightAware
10:35AM 43.4790 -73.3930 209° Southwest 433 498 31,300 -3,120 Descending FlightAware
10:35AM 43.4080 -73.4480 209° Southwest 437 503 29,200 -2,340 Descending FlightAware
10:36AM 43.3230 -73.5120 209° Southwest 438 504 27,800 -900 Descending FlightAware
10:37AM 43.2630 -73.5580 209° Southwest 438 504 27,800  Level FlightAware
10:37AM 43.2030 -73.6040 209° Southwest 438 504 27,800 -3,780 Level FlightAware
10:38AM 43.0690 -73.6630 198° South 407 468 22,500 -5,340 Descending FlightAware
10:39AM 42.9920 -73.6980 198° South 407 468 20,300 -2,580 Descending FlightAware
10:40AM 42.9140 -73.7310 197° South 393 452 18,900 -1,980 Descending FlightAware
10:40AM 42.8450 -73.7610 198° South 388 447 17,500 -1,980 Descending FlightAware
10:41AM 42.7670 -73.7950 198° South 385 443 16,100 -1,200 Descending FlightAware
10:42AM 42.7130 -73.8180 197° South 379 436 15,900 -120 Descending FlightAware
10:43AM 42.6000 -73.8720 199° South 382 440 15,900  Level FlightAware
10:43AM 42.5430 -73.8980 199° South 382 440 15,900  Level FlightAware
10:44AM 42.4860 -73.9250 199° South 382 440 15,900  Level FlightAware
10:45AM 42.4290 -73.9510 199° South 382 440 15,900  Level FlightAware
10:45AM 42.3730 -73.9780 200° South 382 440 15,900  Level FlightAware
10:46AM 42.3160 -74.0040 199° South 382 440 15,900 -720 Level FlightAware
10:52AM 41.6790 -74.2840 198° South 334 384 11,100 -720 Descending FlightAware
10:53AM 41.6460 -74.2980 198° South 334 384 11,100  Level FlightAware
10:54AM 41.5960 -74.3200 198° South 334 384 11,100  Level FlightAware
10:54AM 41.5460 -74.3410 197° South 334 384 11,100 -1,680 Level FlightAware
10:55AM 41.5300 -74.3425 197° South 315 362 9,500 -900 Descending Boston Center
11:00AM 41.1088 -74.4854 197° South 281 323 5,900 -660 Descending FlightAware ADS-B
11:01AM 41.0877 -74.4291 116° Southeast 280 322 5,700 -480 Descending FlightAware ADS-B
11:01AM 41.0793 -74.4059 116° Southeast 276 318 5,500 -900 Descending FlightAware ADS-B
11:02AM 41.0580 -74.3510 117° Southeast 278 320 4,900 -780 Descending FlightAware
11:02AM 41.0513 -74.3337 117° Southeast 271 312 4,900  Level FlightAware ADS-B
11:02AM 41.0327 -74.2841 116° Southeast 258 297 4,900 -120 Level FlightAware ADS-B
11:03AM 41.0210 -74.2521 116° Southeast 258 297 4,800 -360 Descending FlightAware ADS-B
11:03AM 41.0133 -74.2315 116° Southeast 237 273 4,700 -780 Descending FlightAware ADS-B
11:03AM 41.0058 -74.2116 117° Southeast 235 270 4,400 -1,200 Descending FlightAware ADS-B
11:03AM 41.0010 -74.1991 117° Southeast 235 270 4,200 -600 Descending FlightAware ADS-B
11:04AM 40.9768 -74.1435 120° Southeast 238 274 3,900 -420 Descending FlightAware ADS-B
11:05AM 40.9663 -74.1249 127° Southeast 235 270 3,800 -720 Descending FlightAware ADS-B
11:05AM 40.9497 -74.1069 141° Southeast 236 272 3,500 -1,020 Descending FlightAware ADS-B
11:05AM 40.9328 -74.0981 159° South 220 253 3,200 -1,020 Descending FlightAware ADS-B
11:05AM 40.9150 -74.0897 160° South 214 246 2,900 -480 Descending FlightAware ADS-B
11:06AM 40.8973 -74.0813 160° South 199 229 2,900  Level FlightAware ADS-B
11:06AM 40.8626 -74.0656 161° South 182 209 2,900  Level FlightAware ADS-B
11:07AM 40.8595 -74.0652 174° South 186 214 2,900  Level FlightAware ADS-B
11:07AM 40.8552 -74.0654 182° South 182 209 2,900  Level FlightAware ADS-B
11:07AM 40.8518 -74.0666 195° South 179 206 2,900  Level FlightAware ADS-B
11:07AM 40.8491 -74.0680 201° Southwest 177 204 2,900  Level FlightAware ADS-B
11:07AM 40.8381 -74.0755 207° Southwest 175 201 2,900  Level FlightAware ADS-B
11:07AM 40.8288 -74.0820 208° Southwest 176 203 2,900  Level FlightAware ADS-B
11:07AM 40.8262 -74.0836 205° Southwest 177 204 2,900  Level FlightAware ADS-B
11:07AM 40.8231 -74.0851 200° South 180 207 2,900 -780 Level FlightAware ADS-B
11:08AM 40.7998 -74.0842 178° South 188 216 2,500 -1,080 Descending FlightAware ADS-B
11:08AM 40.7904 -74.0829 174° South 185 213 2,200 -1,260 Descending FlightAware ADS-B
11:08AM 40.7788 -74.0817 176° South 191 220 2,000 -1,020 Descending FlightAware ADS-B
11:08AM 40.7643 -74.0812 179° South 188 216 1,700 -960 Descending FlightAware ADS-B
11:09AM 40.7579 -74.0815 182° South 172 198 1,600 -720 Descending FlightAware ADS-B
11:09AM 40.7452 -74.0825 183° South 160 184 1,400 -600 Descending FlightAware ADS-B
11:09AM 40.7279 -74.0853 187° South 146 168 1,200 -600 Descending FlightAware ADS-B
11:10AM 40.7162 -74.0875 188° South 143 165 1,000 -540 Descending FlightAware ADS-B
11:10AM 40.7023 -74.0992 213° Southwest 124 143 800 -360 Descending FlightAware ADS-B
11:10AM 40.7027 -74.1031 278° West 117 135 800 -480 Level FlightAware ADS-B
11:10AM 40.7036 -74.1081 283° West 115 132 700 -780 Descending FlightAware ADS-B
11:11AM 40.7069 -74.1438 277° West 123 142 100 -780 Descending FlightAware ADS-B